Time;durP1;ratioP1;P1;durP2;ratioP2;P2;SDS_P1;SDS_P2;PMS_P1;PMS_P2;Temp;Humidity;BMP_temperature;BMP_pressure;BME280_temperature;BME280_humidity;BME280_pressure;Samples;Min_cycle;Max_cycle;Signal;HPM_P1;HPM_P2
2022/04/12 06:00:52;;;;;;;29.30;4.55;;;;;;;;;;5729348;23;20034;-90
2022/04/12 06:03:19;;;;;;;46.45;5.05;;;;;;;;;;4974752;28;20100;-88
2022/04/12 06:05:45;;;;;;;36.63;4.68;;;;;;;;;;4974402;28;20046;-89
2022/04/12 06:08:12;;;;;;;31.63;4.90;;;;;;;;;;4976829;28;20451;-89
2022/04/12 06:10:38;;;;;;;39.40;4.53;;;;;;;;;;4990768;28;20130;-89
2022/04/12 06:13:05;;;;;;;32.38;4.65;;;;;;;;;;4994076;28;20143;-90
2022/04/12 06:15:32;;;;;;;40.45;4.50;;;;;;;;;;4975587;28;20522;-91
2022/04/12 06:18:05;;;;;;;38.17;4.60;;;;;;;;;;4992856;28;20100;-88
2022/04/12 06:20:31;;;;;;;37.38;4.53;;;;;;;;;;4978651;28;20196;-89
2022/04/12 06:22:58;;;;;;;33.45;5.03;;;;;;;;;;4988927;28;20138;-90
2022/04/12 06:25:24;;;;;;;37.35;4.55;;;;;;;;;;4987293;28;20054;-91
2022/04/12 06:27:51;;;;;;;43.45;4.55;;;;;;;;;;4973087;28;20051;-90
2022/04/12 06:30:21;;;;;;;46.10;4.88;;;;;;;;;;4990440;28;20046;-90
2022/04/12 06:32:48;;;;;;;33.33;4.50;;;;;;;;;;4975136;28;20077;-89
2022/04/12 06:35:15;;;;;;;39.80;5.03;;;;;;;;;;4971701;28;20494;-90
2022/04/12 06:37:44;;;;;;;38.80;5.10;;;;;;;;;;4984584;28;20054;-90
2022/04/12 06:40:13;;;;;;;40.95;5.60;;;;;;;;;;4985463;28;20046;-90
2022/04/12 06:42:39;;;;;;;40.80;5.28;;;;;;;;;;4989302;28;20050;-89
2022/04/12 06:45:08;;;;;;;33.78;4.40;;;;;;;;;;4957324;28;20042;-86
2022/04/12 06:47:35;;;;;;;41.20;4.70;;;;;;;;;;4987850;28;20042;-91
2022/04/12 06:50:02;;;;;;;46.90;4.45;;;;;;;;;;4990403;28;20061;-90
2022/04/12 06:52:29;;;;;;;30.95;3.85;;;;;;;;;;4984474;28;20132;-90
2022/04/12 06:54:56;;;;;;;41.17;4.32;;;;;;;;;;4998714;28;20136;-89
2022/04/12 06:57:22;;;;;;;37.22;4.22;;;;;;;;;;4962156;28;20182;-89
2022/04/12 06:59:51;;;;;;;34.15;5.38;;;;;;;;;;4979527;28;20138;-88
2022/04/12 07:02:18;;;;;;;34.38;4.30;;;;;;;;;;4993313;28;20038;-89
2022/04/12 07:04:46;;;;;;;33.17;4.95;;;;;;;;;;4984934;28;20117;-89
2022/04/12 07:07:12;;;;;;;30.83;4.63;;;;;;;;;;5013375;28;20126;-89
2022/04/12 07:09:39;;;;;;;29.67;4.07;;;;;;;;;;4978864;28;20074;-89
2022/04/12 07:12:07;;;;;;;23.77;3.72;;;;;;;;;;4978451;28;20050;-89
2022/04/12 07:14:34;;;;;;;22.48;3.10;;;;;;;;;;4983435;28;20125;-90
2022/04/12 07:17:03;;;;;;;22.60;3.17;;;;;;;;;;4980931;28;20101;-91
2022/04/12 07:19:31;;;;;;;24.90;4.45;;;;;;;;;;4980666;28;20058;-90
2022/04/12 07:21:58;;;;;;;33.37;4.40;;;;;;;;;;4991006;28;20098;-90
2022/04/12 07:24:25;;;;;;;25.23;4.20;;;;;;;;;;4984600;28;20935;-91
2022/04/12 07:26:52;;;;;;;28.60;3.53;;;;;;;;;;4985100;28;20065;-89
2022/04/12 07:29:21;;;;;;;20.25;2.95;;;;;;;;;;4986731;28;20693;-90
2022/04/12 07:31:48;;;;;;;28.40;3.50;;;;;;;;;;4990091;28;20136;-90
2022/04/12 07:34:15;;;;;;;20.45;3.33;;;;;;;;;;4991314;28;20050;-90
2022/04/12 07:36:47;;;;;;;31.35;4.07;;;;;;;;;;4991830;28;20047;-91
2022/04/12 07:39:16;;;;;;;22.48;3.28;;;;;;;;;;4970264;28;20046;-89
2022/04/12 07:41:47;;;;;;;21.70;3.40;;;;;;;;;;4975581;28;20060;-90
2022/04/12 07:44:14;;;;;;;22.17;3.10;;;;;;;;;;4983280;28;20108;-91
2022/04/12 07:46:41;;;;;;;26.48;2.70;;;;;;;;;;4984782;28;20050;-90
2022/04/12 07:49:26;;;;;;;;;;;;;;;;;;;;;
2022/04/12 07:52:04;;;;;;;20.73;2.80;;;;;;;;;;4977802;28;20129;-89
2022/04/12 07:54:31;;;;;;;25.98;3.50;;;;;;;;;;4952312;28;20169;-90
2022/04/12 07:57:04;;;;;;;21.67;2.88;;;;;;;;;;4965775;28;20768;-89
2022/04/12 07:59:43;;;;;;;25.27;2.88;;;;;;;;;;4945967;28;20061;-89
2022/04/12 08:02:24;;;;;;;31.75;3.45;;;;;;;;;;4967584;28;20054;-90
2022/04/12 08:05:23;;;;;;;24.92;2.88;;;;;;;;;;4985847;28;20957;-91
2022/04/12 08:08:20;;;;;;;;;;;;;;;;;;;;;
2022/04/12 08:11:00;;;;;;;18.75;2.70;;;;;;;;;;4984989;28;20050;-90
2022/04/12 08:13:44;;;;;;;23.55;2.50;;;;;;;;;;4961805;28;20050;-92
2022/04/12 08:16:20;;;;;;;25.55;2.95;;;;;;;;;;4977428;28;20054;-92
2022/04/12 08:18:46;;;;;;;23.13;3.00;;;;;;;;;;4979608;28;20205;-93
2022/04/12 08:21:14;;;;;;;25.85;3.15;;;;;;;;;;4970196;28;20062;-93
2022/04/12 08:23:41;;;;;;;19.65;2.70;;;;;;;;;;4988879;28;20129;-93
2022/04/12 08:26:08;;;;;;;13.98;2.15;;;;;;;;;;4970376;28;20039;-94
2022/04/12 08:28:42;;;;;;;12.80;2.13;;;;;;;;;;4975404;28;20091;-90
2022/04/12 08:31:13;;;;;;;19.48;2.20;;;;;;;;;;4974984;28;20038;-95
2022/04/12 08:33:41;;;;;;;18.00;2.60;;;;;;;;;;4982018;28;20057;-93
2022/04/12 08:36:08;;;;;;;16.67;2.78;;;;;;;;;;4976662;28;20466;-94
2022/04/12 08:38:35;;;;;;;20.63;2.55;;;;;;;;;;4986796;28;20506;-90
2022/04/12 08:41:02;;;;;;;15.40;2.38;;;;;;;;;;4973564;28;20498;-88
2022/04/12 08:43:29;;;;;;;21.48;2.72;;;;;;;;;;4970549;28;20061;-88
2022/04/12 08:45:56;;;;;;;14.35;2.38;;;;;;;;;;4969134;28;20158;-90
2022/04/12 08:48:23;;;;;;;15.48;2.20;;;;;;;;;;4974426;28;20046;-90
2022/04/12 08:50:52;;;;;;;12.68;2.35;;;;;;;;;;4974521;28;20050;-91
2022/04/12 08:53:20;;;;;;;15.48;2.08;;;;;;;;;;4973210;28;20042;-92
2022/04/12 08:55:47;;;;;;;16.17;2.40;;;;;;;;;;4986985;28;20116;-90
2022/04/12 08:58:14;;;;;;;9.98;1.95;;;;;;;;;;4963848;28;20400;-91
2022/04/12 09:00:54;;;;;;;14.80;2.00;;;;;;;;;;4959420;28;20081;-92
2022/04/12 09:03:27;;;;;;;12.00;2.60;;;;;;;;;;4968819;28;20680;-91
2022/04/12 09:05:54;;;;;;;12.80;1.73;;;;;;;;;;4974570;28;20058;-92
2022/04/12 09:08:34;;;;;;;9.40;1.70;;;;;;;;;;4970924;28;20045;-90
2022/04/12 09:11:24;;;;;;;10.48;1.80;;;;;;;;;;4976356;28;20050;-90
2022/04/12 09:14:04;;;;;;;8.77;1.80;;;;;;;;;;4937102;28;20093;-88
2022/04/12 09:17:24;;;;;;;11.20;1.73;;;;;;;;;;4982750;28;20177;-89
2022/04/12 09:27:31;;;;;;;11.75;1.33;;;;;;;;;;4875722;29;20132;-93
2022/04/12 09:30:11;;;;;;;11.70;1.77;;;;;;;;;;4886786;29;20048;-96
2022/04/12 09:32:42;;;;;;;8.57;1.15;;;;;;;;;;4890375;29;20059;-94
2022/04/12 09:35:09;;;;;;;8.85;1.60;;;;;;;;;;4873309;29;20053;-89
2022/04/12 09:37:45;;;;;;;6.50;1.20;;;;;;;;;;4893464;29;20552;-95
2022/04/12 09:40:17;;;;;;;9.48;1.50;;;;;;;;;;4883905;29;20119;-93
2022/04/12 09:42:49;;;;;;;7.15;1.63;;;;;;;;;;4890847;29;20112;-96
2022/04/12 09:45:33;;;;;;;6.05;1.20;;;;;;;;;;4880151;29;20206;-94
2022/04/12 09:48:08;;;;;;;6.75;1.25;;;;;;;;;;4866893;29;20068;-93
2022/04/12 09:50:59;;;;;;;7.93;1.40;;;;;;;;;;4885670;29;20049;-94
2022/04/12 09:53:39;;;;;;;8.77;1.95;;;;;;;;;;4889309;29;20068;-92
2022/04/12 09:56:21;;;;;;;12.05;1.50;;;;;;;;;;4891687;29;20569;-94
2022/04/12 09:58:51;;;;;;;7.50;1.70;;;;;;;;;;4883420;29;20067;-93
2022/04/12 10:01:22;;;;;;;6.47;1.35;;;;;;;;;;4868962;29;20049;-93
2022/04/12 10:04:14;;;;;;;6.78;1.30;;;;;;;;;;4869124;29;20068;-94
2022/04/12 10:06:45;;;;;;;5.82;1.30;;;;;;;;;;4885400;29;20125;-92
2022/04/12 10:09:17;;;;;;;5.60;0.95;;;;;;;;;;4872763;29;20040;-92
2022/04/12 10:18:12;;;;;;;7.82;1.52;;;;;;;;;;4799191;29;20050;-93
2022/04/12 10:20:43;;;;;;;9.00;1.67;;;;;;;;;;4774881;29;20216;-96
2022/04/12 10:23:20;;;;;;;7.35;1.65;;;;;;;;;;4808222;29;20078;-93
2022/04/12 10:25:52;;;;;;;6.47;1.58;;;;;;;;;;4807031;29;20068;-91
2022/04/12 10:28:33;;;;;;;6.45;1.70;;;;;;;;;;4821045;29;20057;-92
2022/04/12 10:31:14;;;;;;;7.15;1.27;;;;;;;;;;4811477;29;20535;-95
2022/04/12 10:34:09;;;;;;;7.03;1.25;;;;;;;;;;4831377;29;20504;-95
2022/04/12 10:36:54;;;;;;;8.55;1.40;;;;;;;;;;4821959;29;20062;-95
2022/04/12 10:39:56;;;;;;;9.75;1.90;;;;;;;;;;4810410;29;20070;-95
2022/04/12 10:42:31;;;;;;;8.77;1.42;;;;;;;;;;4810193;29;20049;-94
2022/04/12 10:45:01;;;;;;;12.95;1.58;;;;;;;;;;4819368;29;20069;-95
2022/04/12 10:47:36;;;;;;;12.10;2.10;;;;;;;;;;4803086;29;20058;-93
2022/04/12 10:50:12;;;;;;;8.68;1.58;;;;;;;;;;4815992;29;20598;-95
2022/04/12 10:52:45;;;;;;;13.88;2.33;;;;;;;;;;4888284;29;20076;-94
2022/04/12 10:55:22;;;;;;;6.80;1.70;;;;;;;;;;4886921;29;20061;-94
2022/04/12 10:58:28;;;;;;;7.75;1.40;;;;;;;;;;4890255;29;20112;-96
2022/04/12 11:00:57;;;;;;;8.15;1.42;;;;;;;;;;4875559;29;20049;-96
2022/04/12 11:03:53;;;;;;;7.85;1.50;;;;;;;;;;4856563;29;20052;-94
2022/04/12 11:06:23;;;;;;;9.65;1.52;;;;;;;;;;4883565;29;20057;-93
2022/04/12 11:09:03;;;;;;;;;;;;;;;;;;4883831;29;20049;-96
2022/04/12 11:11:41;;;;;;;14.98;4.28;;;;;;;;;;4875772;29;19927;-94
2022/04/12 11:14:27;;;;;;;11.25;3.20;;;;;;;;;;4885485;29;20076;-94
2022/04/12 11:16:57;;;;;;;10.52;2.00;;;;;;;;;;4889277;29;20116;-94
2022/04/12 11:19:27;;;;;;;10.88;2.15;;;;;;;;;;4882136;29;20057;-93
2022/04/12 11:21:59;;;;;;;17.05;2.72;;;;;;;;;;4888565;29;20108;-94
2022/04/12 11:24:26;;;;;;;13.32;3.30;;;;;;;;;;4867201;29;20057;-95
2022/04/12 11:27:12;;;;;;;10.45;2.45;;;;;;;;;;4904351;29;20045;-93
2022/04/12 11:29:41;;;;;;;14.32;2.75;;;;;;;;;;4899697;29;20052;-94
2022/04/12 11:32:11;;;;;;;;;;;;;;;;;;4922430;29;20052;-94
2022/04/12 11:34:41;;;;;;;11.85;1.85;;;;;;;;;;4895944;29;19939;-95
2022/04/12 11:37:11;;;;;;;8.70;1.95;;;;;;;;;;4932327;29;20052;-95
2022/04/12 11:39:48;;;;;;;11.02;1.88;;;;;;;;;;4918023;29;20056;-95
2022/04/12 11:42:15;;;;;;;6.78;1.50;;;;;;;;;;4923856;29;20123;-93
2022/04/12 11:44:53;;;;;;;8.50;1.80;;;;;;;;;;4928449;29;20057;-94
2022/04/12 11:47:26;;;;;;;6.05;1.48;;;;;;;;;;4910333;29;20095;-93
2022/04/12 11:49:53;;;;;;;7.57;1.60;;;;;;;;;;4915738;29;20075;-94
2022/04/12 11:52:20;;;;;;;6.57;1.40;;;;;;;;;;4929424;29;20120;-96
2022/04/12 11:54:48;;;;;;;8.05;1.45;;;;;;;;;;4912214;29;20059;-96
2022/04/12 11:57:22;;;;;;;5.22;1.63;;;;;;;;;;4914355;29;20092;-93
2022/04/12 11:59:50;;;;;;;9.45;2.20;;;;;;;;;;4915134;29;20108;-92
2022/04/12 12:02:18;;;;;;;;;;;;;;;;;;4917079;29;20044;-95
2022/04/12 12:04:57;;;;;;;7.38;1.40;;;;;;;;;;4932307;29;19927;-95
2022/04/12 12:07:29;;;;;;;10.38;2.03;;;;;;;;;;4910545;29;20048;-96
2022/04/12 12:10:03;;;;;;;7.75;1.60;;;;;;;;;;4915816;29;20052;-95
2022/04/12 12:12:35;;;;;;;10.98;1.83;;;;;;;;;;4917664;29;20069;-92
2022/04/12 12:15:24;;;;;;;7.47;1.48;;;;;;;;;;4916016;29;20048;-94
2022/04/12 12:21:57;;;;;;;9.68;1.73;;;;;;;;;;4914209;29;20108;-92
2022/04/12 12:24:24;;;;;;;12.38;1.60;;;;;;;;;;4913614;29;20077;-91
2022/04/12 12:26:58;;;;;;;10.48;2.20;;;;;;;;;;4909451;29;20072;-91
2022/04/12 12:29:25;;;;;;;15.00;2.47;;;;;;;;;;4917190;28;20509;-92
2022/04/12 12:31:56;;;;;;;7.72;1.83;;;;;;;;;;4933838;29;20048;-91
2022/04/12 12:34:27;;;;;;;12.05;1.85;;;;;;;;;;4916218;29;20099;-95
2022/04/12 12:36:56;;;;;;;11.48;1.73;;;;;;;;;;4917465;29;20051;-94
2022/04/12 12:39:28;;;;;;;9.05;1.48;;;;;;;;;;4917438;29;20063;-93
2022/04/12 12:41:58;;;;;;;8.27;1.50;;;;;;;;;;4929927;29;20059;-93
2022/04/12 12:44:35;;;;;;;9.48;1.83;;;;;;;;;;4917252;29;20147;-94
2022/04/12 12:47:04;;;;;;;8.32;1.70;;;;;;;;;;4916388;29;20052;-95
2022/04/12 12:49:36;;;;;;;12.43;1.90;;;;;;;;;;4917397;29;20052;-95
2022/04/12 12:52:10;;;;;;;9.20;1.70;;;;;;;;;;4916574;29;20083;-95
2022/04/12 12:54:58;;;;;;;7.45;1.83;;;;;;;;;;4921205;29;20054;-93
2022/04/12 12:57:36;;;;;;;11.57;1.70;;;;;;;;;;4915642;29;20060;-95
2022/04/12 13:00:10;;;;;;;7.57;1.80;;;;;;;;;;4917677;29;20048;-94
2022/04/12 13:02:38;;;;;;;6.72;1.33;;;;;;;;;;4921608;29;20056;-94
2022/04/12 13:05:10;;;;;;;10.18;1.30;;;;;;;;;;4914833;29;20117;-93
2022/04/12 13:07:38;;;;;;;7.15;1.60;;;;;;;;;;4940521;29;20068;-93
2022/04/12 13:10:17;;;;;;;8.07;1.63;;;;;;;;;;4910833;29;20139;-93
2022/04/12 13:12:45;;;;;;;9.18;1.42;;;;;;;;;;4914508;29;20059;-93
2022/04/12 13:15:13;;;;;;;8.63;1.65;;;;;;;;;;4914376;29;20580;-93
2022/04/12 13:17:41;;;;;;;9.75;1.80;;;;;;;;;;4918931;29;20060;-93
2022/04/12 13:20:13;;;;;;;7.18;1.60;;;;;;;;;;4912482;29;20055;-91
2022/04/12 13:22:41;;;;;;;8.95;1.60;;;;;;;;;;4912398;29;20071;-92
2022/04/12 13:25:08;;;;;;;6.32;1.17;;;;;;;;;;4917663;29;20051;-94
2022/04/12 13:27:37;;;;;;;7.10;1.55;;;;;;;;;;4917034;29;20148;-96
2022/04/12 13:30:05;;;;;;;5.43;1.27;;;;;;;;;;4916706;29;20147;-94
2022/04/12 13:32:38;;;;;;;11.70;1.83;;;;;;;;;;4928939;29;20091;-93
2022/04/12 13:35:10;;;;;;;5.60;1.60;;;;;;;;;;4912758;29;20052;-94
2022/04/12 13:37:38;;;;;;;7.88;1.25;;;;;;;;;;4914176;29;20052;-94
2022/04/12 13:40:06;;;;;;;6.77;1.37;;;;;;;;;;4913899;29;20055;-95
2022/04/12 13:42:33;;;;;;;10.55;1.30;;;;;;;;;;4914994;29;20288;-92
2022/04/12 13:45:01;;;;;;;10.95;1.73;;;;;;;;;;4915884;29;20086;-93
2022/04/12 13:47:28;;;;;;;10.13;1.83;;;;;;;;;;4914585;29;20062;-94
2022/04/12 13:49:56;;;;;;;7.75;1.15;;;;;;;;;;4918574;29;20048;-96
2022/04/12 13:52:24;;;;;;;7.80;1.85;;;;;;;;;;4913040;29;20056;-91
2022/04/12 13:54:52;;;;;;;5.90;1.60;;;;;;;;;;4933450;29;20044;-96
2022/04/12 13:57:24;;;;;;;8.65;1.88;;;;;;;;;;4908515;29;20521;-94
2022/04/12 13:59:52;;;;;;;6.85;1.60;;;;;;;;;;4916472;29;20048;-96
2022/04/12 14:02:19;;;;;;;7.15;1.80;;;;;;;;;;4929268;29;20048;-95
2022/04/12 14:04:46;;;;;;;8.32;1.65;;;;;;;;;;4914530;29;20048;-94
2022/04/12 14:07:17;;;;;;;5.55;1.35;;;;;;;;;;4910549;29;20051;-95
2022/04/12 14:09:44;;;;;;;7.30;1.63;;;;;;;;;;4930245;29;20055;-96
2022/04/12 14:12:12;;;;;;;9.45;1.58;;;;;;;;;;4911245;29;20048;-94
2022/04/12 14:14:39;;;;;;;6.72;1.65;;;;;;;;;;4913806;29;20060;-96
2022/04/12 14:17:06;;;;;;;7.95;1.88;;;;;;;;;;4932459;29;20532;-96
2022/04/12 14:19:34;;;;;;;9.30;1.88;;;;;;;;;;4917723;29;20051;-95
2022/04/12 14:22:00;;;;;;;5.10;1.70;;;;;;;;;;4928370;29;20063;-95
2022/04/12 14:24:28;;;;;;;7.45;1.50;;;;;;;;;;4922892;29;20048;-95
2022/04/12 14:26:54;;;;;;;9.05;1.52;;;;;;;;;;4917214;29;20052;-95
2022/04/12 14:29:21;;;;;;;9.57;1.60;;;;;;;;;;4927587;29;20888;-95
2022/04/12 14:31:48;;;;;;;7.25;1.38;;;;;;;;;;4913701;29;20067;-95
2022/04/12 14:34:14;;;;;;;7.10;1.60;;;;;;;;;;4908734;29;20096;-93
2022/04/12 14:36:41;;;;;;;11.43;1.70;;;;;;;;;;4910373;29;20075;-93
2022/04/12 14:39:08;;;;;;;12.57;2.17;;;;;;;;;;4912260;29;20095;-93
2022/04/12 14:41:36;;;;;;;5.97;1.65;;;;;;;;;;4909339;29;20139;-94
2022/04/12 14:44:03;;;;;;;12.80;1.90;;;;;;;;;;4904425;29;20044;-94
2022/04/12 14:46:30;;;;;;;12.73;1.70;;;;;;;;;;4913815;29;20604;-93
2022/04/12 14:48:57;;;;;;;8.02;1.55;;;;;;;;;;4922544;29;20115;-94
2022/04/12 14:51:24;;;;;;;6.22;1.42;;;;;;;;;;4920664;29;20080;-94
2022/04/12 14:53:51;;;;;;;6.55;1.30;;;;;;;;;;4913178;29;20052;-91
2022/04/12 14:56:20;;;;;;;9.70;1.23;;;;;;;;;;4912027;29;20052;-96
2022/04/12 14:58:50;;;;;;;4.35;0.93;;;;;;;;;;4920487;29;20052;-91
2022/04/12 15:01:16;;;;;;;8.13;1.05;;;;;;;;;;4913279;29;20068;-96
2022/04/12 15:03:43;;;;;;;4.93;0.82;;;;;;;;;;4916809;29;20131;-95
2022/04/12 15:06:10;;;;;;;5.60;1.20;;;;;;;;;;4915257;29;20330;-91
2022/04/12 15:08:37;;;;;;;8.15;1.17;;;;;;;;;;4915547;29;20087;-90
2022/04/12 15:11:07;;;;;;;;;;;;;;;;;;4915032;29;20534;-91
2022/04/12 15:13:34;;;;;;;7.18;1.50;;;;;;;;;;4916980;29;19977;-89
2022/04/12 15:16:02;;;;;;;5.07;1.17;;;;;;;;;;4926766;29;20055;-89
2022/04/12 15:18:29;;;;;;;4.03;1.00;;;;;;;;;;4915646;29;20048;-90
2022/04/12 15:20:56;;;;;;;5.55;1.13;;;;;;;;;;4915943;29;20402;-92
2022/04/12 15:23:23;;;;;;;4.40;1.10;;;;;;;;;;4915366;29;20132;-91
2022/04/12 15:25:50;;;;;;;4.82;1.10;;;;;;;;;;4914820;29;20139;-88
2022/04/12 15:28:16;;;;;;;6.18;1.17;;;;;;;;;;4927601;29;20079;-92
2022/04/12 15:30:43;;;;;;;6.85;1.33;;;;;;;;;;4915456;29;20140;-92
2022/04/12 15:33:10;;;;;;;3.90;0.70;;;;;;;;;;4929994;29;20189;-95
2022/04/12 15:35:36;;;;;;;5.40;1.10;;;;;;;;;;4916142;29;20067;-90
2022/04/12 15:38:03;;;;;;;8.57;1.30;;;;;;;;;;4915543;29;20138;-91
2022/04/12 15:40:31;;;;;;;4.80;1.00;;;;;;;;;;4914363;29;20048;-91
2022/04/12 15:43:01;;;;;;;4.88;1.45;;;;;;;;;;4925308;29;20437;-94
2022/04/12 15:45:28;;;;;;;7.03;1.42;;;;;;;;;;4928492;29;20072;-90
2022/04/12 15:47:56;;;;;;;5.32;1.67;;;;;;;;;;4931317;29;20535;-91
2022/04/12 15:50:23;;;;;;;4.45;0.88;;;;;;;;;;4916380;29;20086;-90
2022/04/12 15:52:50;;;;;;;7.68;1.10;;;;;;;;;;4931255;29;20067;-92
2022/04/12 15:55:18;;;;;;;6.13;1.10;;;;;;;;;;4914239;29;20064;-93
2022/04/12 15:57:47;;;;;;;5.93;1.00;;;;;;;;;;4914463;29;20055;-91
2022/04/12 16:00:15;;;;;;;9.15;2.10;;;;;;;;;;4913523;29;20077;-93
2022/04/12 16:02:42;;;;;;;;;;;;;;;;;;4927793;29;20115;-92
2022/04/12 16:05:10;;;;;;;5.93;1.25;;;;;;;;;;4913457;29;20311;-91
2022/04/12 16:07:37;;;;;;;4.07;0.98;;;;;;;;;;4908571;29;20055;-95
2022/04/12 16:10:04;;;;;;;8.20;1.90;;;;;;;;;;4914390;29;20112;-92
2022/04/12 16:12:31;;;;;;;28.60;10.98;;;;;;;;;;4906597;29;20059;-91
2022/04/12 16:14:58;;;;;;;10.25;1.52;;;;;;;;;;4912333;29;20048;-94
2022/04/12 16:17:25;;;;;;;8.55;1.40;;;;;;;;;;4908481;29;20083;-91
2022/04/12 16:19:52;;;;;;;6.38;1.20;;;;;;;;;;4908978;29;20052;-92
2022/04/12 16:22:18;;;;;;;8.82;1.70;;;;;;;;;;4921776;29;20504;-91
2022/04/12 16:24:47;;;;;;;7.45;1.38;;;;;;;;;;4908679;29;20052;-94
2022/04/12 16:27:14;;;;;;;7.10;1.10;;;;;;;;;;4930567;29;20082;-93
2022/04/12 16:29:41;;;;;;;6.05;1.17;;;;;;;;;;4916306;29;20075;-92
2022/04/12 16:32:16;;;;;;;10.27;1.67;;;;;;;;;;4926763;29;20056;-94
2022/04/12 16:34:43;;;;;;;10.23;1.50;;;;;;;;;;4909467;29;20056;-91
2022/04/12 16:37:12;;;;;;;7.68;1.40;;;;;;;;;;4913474;29;20418;-94
2022/04/12 16:39:43;;;;;;;9.63;1.50;;;;;;;;;;4901501;29;20049;-92
2022/04/12 16:42:10;;;;;;;6.47;1.40;;;;;;;;;;4913176;29;20055;-91
2022/04/12 16:44:37;;;;;;;5.63;1.42;;;;;;;;;;4926801;29;20056;-94
2022/04/12 16:47:04;;;;;;;6.03;1.30;;;;;;;;;;4929004;29;20048;-95
2022/04/12 16:49:31;;;;;;;7.05;1.80;;;;;;;;;;4926734;29;20181;-90
2022/04/12 16:51:57;;;;;;;8.07;1.92;;;;;;;;;;4925887;29;20052;-93
2022/04/12 16:54:24;;;;;;;8.52;1.70;;;;;;;;;;4913596;29;20071;-95
2022/04/12 16:56:51;;;;;;;4.95;1.10;;;;;;;;;;4915864;29;20056;-94
2022/04/12 16:59:18;;;;;;;6.50;1.33;;;;;;;;;;4914558;29;20505;-92
2022/04/12 17:01:48;;;;;;;5.90;1.30;;;;;;;;;;4930436;29;20055;-94
2022/04/12 17:04:15;;;;;;;9.60;1.75;;;;;;;;;;4928665;29;20076;-91
2022/04/12 17:06:43;;;;;;;5.15;1.38;;;;;;;;;;4929640;29;20056;-95
2022/04/12 17:09:11;;;;;;;7.10;1.80;;;;;;;;;;4913834;29;20047;-92
2022/04/12 17:11:38;;;;;;;8.77;1.60;;;;;;;;;;4915066;29;20531;-93
2022/04/12 17:14:05;;;;;;;13.75;1.65;;;;;;;;;;4928357;29;20107;-92
2022/04/12 17:16:34;;;;;;;11.93;1.65;;;;;;;;;;4908071;29;20055;-93
2022/04/12 17:19:01;;;;;;;12.65;1.73;;;;;;;;;;4925589;29;20461;-95
2022/04/12 17:21:28;;;;;;;10.05;2.05;;;;;;;;;;4906582;29;20059;-92
2022/04/12 17:23:55;;;;;;;9.90;2.35;;;;;;;;;;4910559;29;20461;-94
2022/04/12 17:26:22;;;;;;;11.25;2.50;;;;;;;;;;4925260;29;20079;-93
2022/04/12 17:28:49;;;;;;;12.57;2.70;;;;;;;;;;4909755;29;20059;-95
2022/04/12 17:31:16;;;;;;;20.23;3.05;;;;;;;;;;4910751;29;20404;-90
2022/04/12 17:33:43;;;;;;;12.57;1.95;;;;;;;;;;4919691;29;20633;-94
2022/04/12 17:36:09;;;;;;;14.32;3.38;;;;;;;;;;4922547;29;20052;-93
2022/04/12 17:38:39;;;;;;;11.65;3.50;;;;;;;;;;4910933;29;20086;-91
2022/04/12 17:41:06;;;;;;;11.10;2.80;;;;;;;;;;4907590;29;20048;-93
2022/04/12 17:43:33;;;;;;;16.08;3.85;;;;;;;;;;4900737;28;20044;-93
2022/04/12 17:46:00;;;;;;;13.85;3.00;;;;;;;;;;4924629;29;20044;-93
2022/04/12 17:48:27;;;;;;;13.32;3.38;;;;;;;;;;4909589;29;20059;-91
2022/04/12 17:50:53;;;;;;;15.48;3.22;;;;;;;;;;4912533;29;20111;-93
2022/04/12 17:53:48;;;;;;;13.90;3.55;;;;;;;;;;4910774;29;20107;-94
2022/04/12 17:56:29;;;;;;;12.38;3.22;;;;;;;;;;4879088;29;20506;-93
2022/04/12 17:59:30;;;;;;;14.35;3.20;;;;;;;;;;4876858;29;20048;-92
2022/04/12 18:18:01;;;;;;;8.20;2.10;;;;;;;;;;5369530;23;20051;-91
2022/04/12 18:21:07;;;;;;;17.55;2.78;;;;;;;;;;4953847;28;20120;-89
2022/04/12 18:37:51;;;;;;;11.65;1.98;;;;;;;;;;4957802;23;20117;-92
2022/04/12 18:40:20;;;;;;;12.18;2.20;;;;;;;;;;4961436;28;20043;-91
2022/04/12 18:42:48;;;;;;;10.63;1.83;;;;;;;;;;4991473;28;20050;-92
2022/04/12 18:45:14;;;;;;;9.43;2.00;;;;;;;;;;4989602;28;20046;-91
2022/04/12 18:47:41;;;;;;;14.45;2.08;;;;;;;;;;4976544;28;20137;-88
2022/04/12 18:50:09;;;;;;;10.73;2.63;;;;;;;;;;4966251;28;20331;-91
2022/04/12 18:52:36;;;;;;;7.68;2.15;;;;;;;;;;4989171;28;20547;-91
2022/04/12 18:55:04;;;;;;;8.77;2.00;;;;;;;;;;4989172;28;20050;-91
2022/04/12 18:57:32;;;;;;;17.05;2.42;;;;;;;;;;4987613;28;20104;-90
2022/04/12 19:00:02;;;;;;;10.93;2.00;;;;;;;;;;4986256;28;20089;-90
2022/04/12 19:02:28;;;;;;;10.02;2.70;;;;;;;;;;4968956;28;20117;-92
2022/04/12 19:04:56;;;;;;;12.10;2.40;;;;;;;;;;4983839;28;20053;-91
2022/04/12 19:07:25;;;;;;;14.05;3.13;;;;;;;;;;4987545;28;20097;-91
2022/04/12 19:09:56;;;;;;;;;;;;;;;;;;4968927;28;20054;-91
2022/04/12 19:12:25;;;;;;;12.98;2.88;;;;;;;;;;4989557;28;19981;-92
2022/04/12 19:14:52;;;;;;;11.80;2.55;;;;;;;;;;4988415;28;20094;-90
2022/04/12 19:17:19;;;;;;;11.38;3.42;;;;;;;;;;4993861;28;20050;-91
2022/04/12 19:19:49;;;;;;;13.23;3.13;;;;;;;;;;4974441;28;20066;-91
2022/04/12 19:22:16;;;;;;;11.32;3.08;;;;;;;;;;4981522;28;20054;-90
2022/04/12 19:24:42;;;;;;;13.73;3.72;;;;;;;;;;4997562;28;20055;-88
2022/04/12 19:27:19;;;;;;;9.60;2.47;;;;;;;;;;4995399;28;20069;-91
2022/04/12 19:29:45;;;;;;;15.93;3.72;;;;;;;;;;4987042;28;20055;-88
2022/04/12 19:32:13;;;;;;;11.57;3.05;;;;;;;;;;4988013;28;20109;-93
2022/04/12 19:34:40;;;;;;;12.38;3.20;;;;;;;;;;4971899;28;20058;-91
2022/04/12 19:37:07;;;;;;;17.48;3.47;;;;;;;;;;4969980;28;20086;-91
2022/04/12 19:39:33;;;;;;;10.40;3.50;;;;;;;;;;4987349;28;20057;-89
2022/04/12 19:42:00;;;;;;;15.07;4.25;;;;;;;;;;4970886;28;20066;-90
2022/04/12 19:44:27;;;;;;;18.85;3.03;;;;;;;;;;4989045;28;20055;-90
2022/04/12 19:46:55;;;;;;;11.98;2.95;;;;;;;;;;4988639;28;20485;-89
2022/04/12 19:49:21;;;;;;;10.20;2.05;;;;;;;;;;4988335;28;20069;-89
2022/04/12 19:51:48;;;;;;;9.98;2.65;;;;;;;;;;4992365;28;20112;-88
2022/04/12 19:54:15;;;;;;;11.13;2.47;;;;;;;;;;4979452;28;20101;-89
2022/04/12 19:56:42;;;;;;;10.80;2.25;;;;;;;;;;4965722;28;20128;-88
2022/04/12 19:59:08;;;;;;;15.50;2.53;;;;;;;;;;4987791;28;20492;-88
2022/04/12 20:01:35;;;;;;;12.10;2.40;;;;;;;;;;4966970;28;20081;-89
2022/04/12 20:04:02;;;;;;;16.48;2.20;;;;;;;;;;4970359;28;20445;-89
2022/04/12 20:06:28;;;;;;;8.73;1.92;;;;;;;;;;4966717;28;20058;-90
2022/04/12 20:08:55;;;;;;;13.50;2.17;;;;;;;;;;4963879;28;20050;-90
2022/04/12 20:11:22;;;;;;;11.63;2.60;;;;;;;;;;4973676;28;20047;-90
2022/04/12 20:13:49;;;;;;;14.75;2.45;;;;;;;;;;4988938;28;20479;-90
2022/04/12 20:16:15;;;;;;;8.93;1.90;;;;;;;;;;4988907;28;20073;-87
2022/04/12 20:18:42;;;;;;;8.93;2.00;;;;;;;;;;4989799;28;20054;-88
2022/04/12 20:21:09;;;;;;;11.65;2.25;;;;;;;;;;4990626;28;20133;-91
2022/04/12 20:23:35;;;;;;;9.15;2.13;;;;;;;;;;4992132;28;20116;-90
2022/04/12 20:26:03;;;;;;;12.73;2.38;;;;;;;;;;4991207;28;20082;-88
2022/04/12 20:28:30;;;;;;;13.63;2.70;;;;;;;;;;4990627;28;20066;-89
2022/04/12 20:30:57;;;;;;;6.40;1.70;;;;;;;;;;4991143;28;20058;-90
2022/04/12 20:33:24;;;;;;;10.07;1.98;;;;;;;;;;4971779;28;20548;-89
2022/04/12 20:35:51;;;;;;;14.55;2.45;;;;;;;;;;4973829;28;20050;-89
2022/04/12 20:38:17;;;;;;;12.43;1.88;;;;;;;;;;4977762;28;20435;-92
2022/04/12 20:40:47;;;;;;;12.60;2.75;;;;;;;;;;4976887;28;20050;-90
2022/04/12 20:43:13;;;;;;;9.18;1.90;;;;;;;;;;4974433;28;20077;-90
2022/04/12 20:45:40;;;;;;;12.20;1.90;;;;;;;;;;4995186;28;20161;-91
2022/04/12 20:48:07;;;;;;;9.32;2.28;;;;;;;;;;4991962;28;20061;-90
2022/04/12 20:50:35;;;;;;;13.98;2.05;;;;;;;;;;4992029;28;20054;-89
2022/04/12 20:53:02;;;;;;;10.60;2.40;;;;;;;;;;4972324;28;20050;-90
2022/04/12 20:55:29;;;;;;;11.70;2.00;;;;;;;;;;4973094;28;20117;-89
2022/04/12 20:57:58;;;;;;;10.27;2.22;;;;;;;;;;4973022;28;20066;-91
2022/04/12 21:00:25;;;;;;;13.32;2.00;;;;;;;;;;4984697;28;20085;-90
2022/04/12 21:02:53;;;;;;;11.13;1.95;;;;;;;;;;4970736;28;20128;-91
2022/04/12 21:05:20;;;;;;;10.55;2.10;;;;;;;;;;4986824;28;20097;-90
2022/04/12 21:07:50;;;;;;;10.20;2.20;;;;;;;;;;4978836;28;20145;-90
2022/04/12 21:10:17;;;;;;;11.27;2.30;;;;;;;;;;4967183;28;20066;-90
2022/04/12 21:12:44;;;;;;;10.65;1.88;;;;;;;;;;4987875;28;20706;-89
2022/04/12 21:15:11;;;;;;;9.38;1.55;;;;;;;;;;4990779;28;20042;-90
2022/04/12 21:17:44;;;;;;;11.95;2.20;;;;;;;;;;4991404;28;20399;-89
2022/04/12 21:20:12;;;;;;;9.85;1.70;;;;;;;;;;4990267;28;20118;-89
2022/04/12 21:22:40;;;;;;;11.50;2.08;;;;;;;;;;4990421;28;20070;-88
2022/04/12 21:25:07;;;;;;;9.00;1.98;;;;;;;;;;4991284;28;20050;-87
2022/04/12 21:27:34;;;;;;;9.73;2.13;;;;;;;;;;4983754;28;20066;-87
2022/04/12 21:30:01;;;;;;;13.35;2.00;;;;;;;;;;4974566;28;20073;-88
2022/04/12 21:32:28;;;;;;;13.70;2.10;;;;;;;;;;4972531;28;20077;-89
2022/04/12 21:34:55;;;;;;;15.40;2.22;;;;;;;;;;4989855;28;20137;-88
2022/04/12 21:37:22;;;;;;;15.55;1.95;;;;;;;;;;4969450;28;20511;-89
2022/04/12 21:39:48;;;;;;;18.27;1.88;;;;;;;;;;4990954;28;20050;-88
2022/04/12 21:42:15;;;;;;;9.68;2.00;;;;;;;;;;4973332;28;20578;-87
2022/04/12 21:44:44;;;;;;;;;;;;;;;;;;4985270;28;20081;-87
2022/04/12 21:47:11;;;;;;;11.32;1.52;;;;;;;;;;4989552;28;20393;-87